Airfield :
LOGIN :

Register | Disclaimer

   EN    FR    IT 

 










Legend :    VFR   Marginal VFR   IFR   Intensive IFR   Very Intensive IFR
Visi :
Ceiling :
>= 8 km
>= 3000ft
5 to 8 km
1000 to 3000 ft
1500m to 5 km
500 to 1000 ft
800 to 1500m
200 to 500 ft
< 800m
< 200 ft
Symbols :   Thunderstorms  Fog  Heavy snow  Heavy precipitations  Wind > 20 kt
SIGMETs :     Misc.  Thunderstorms  Icing  Turbulence  Mountain Waves  Volcanic Ashes






- Airport Elevation : 135 ft
- IATA code : EDI


EGPH - Edinburgh

CURRENT METAR :
  • 011620Z 26015KT 9999 SCT024 10/05 Q1017

EXPIRED METARs :
  • 011550Z 27011KT 9999 SCT029 10/05 Q1017
  • 011520Z 27013KT 9999 SCT030 11/04 Q1018
  • 011450Z 25013KT 9999 BKN029 10/04 Q1018
  • 011420Z 26012KT 9999 SCT032 10/03 Q1018

TAF TAF EGPH
Valid from the 01 at 12:00 until the 02 at 12:00 UTC


011058Z 0112/0212 26012KT 9999 SCT030
TEMPO 0112/0118 26015G25KT
PROB30
TEMPO 0115/0120 6000 -RADZ BKN012
TEMPO 0200/0206 24018G30KT
PROB30
TEMPO 0204/0207 7000 SHRA
TEMPO 0206/0212 30022G32KT
ATIS : +44 131 339 2823



MET'MAP, your aeronautical weather chart ! - Copyright ORBIFLY December 2007 - Disclaimer

ORBIFLY MET'MAP TEAM :

Programming & Development : Alexandra Zaïnal
Concept & original design : Baudouin d'Aumeries
Assistance for programming : Marc-Olivier Méhu
Technical & hardware support : Manuel Goepfert

Contact : metmap@orbifly.com




SOURCES & CREDITS :

   NOAA